Latest Weather Observations for Camden

IDN60901

Issued at 11:41 pm EST Monday 6 July 2015 (issued every 10 minutes, with the page automatically refreshed every 10 minutes)

About weather observations | Map of Sydney area stations | Latest observations for Sydney area | Other Formats
Station Details ID: 068192 Name: CAMDEN AIRPORT AWS Lat: -34.04 Lon: 150.69 Height: 73.9 m
Data from the previous 72 hours. | See also: Recent months at Camden
Date/Time
EST
Tmp

°C
App
Tmp
°C
Dew
Point
°C
Rel
Hum
%
Delta-T

°C
Wind Press
QNH
hPa
Press
MSL
hPa
Rain
since
9 am
mm
Dir
 
Spd
km/h
Gust
km/h
Spd
kts
Gust
kts
06/11:30pm 4.6 2.9 2.0 83 1.0 CALM 0 0 0 0 1017.1 1017.2 0.0
06/11:00pm 5.4 2.3 1.5 76 1.6 S 7 11 4 6 1017.2 1017.3 0.0
06/10:30pm 6.9 3.4 1.0 66 2.4 SE 9 11 5 6 1017.0 1017.1 0.0
06/10:00pm 8.9 5.5 1.6 60 3.0 SW 9 15 5 8 1016.7 1016.8 0.0
06/09:30pm 8.6 5.5 1.5 61 2.9 SSW 7 15 4 8 1016.5 1016.6 0.0
06/09:00pm 7.3 4.3 0.7 63 2.6 S 6 11 3 6 1016.5 1016.6 0.0
06/08:30pm 7.0 3.8 0.7 64 2.5 SSW 7 13 4 7 1016.4 1016.5 0.0
06/08:00pm 7.5 4.5 1.1 64 2.6 SW 6 7 3 4 1016.3 1016.4 0.0
06/07:30pm 7.9 6.1 1.1 62 2.8 CALM 0 6 0 3 1016.4 1016.5 0.0
06/07:00pm 7.5 4.5 0.5 61 2.8 NW 6 7 3 4 1016.3 1016.4 0.0
06/06:30pm 8.3 4.7 0.3 57 3.2 W 9 11 5 6 1016.2 1016.3 0.0
06/05:30pm 10.6 5.9 0.9 51 4.0 WSW 15 26 8 14 1015.6 1015.7 0.0
06/05:00pm 11.5 6.1 1.2 49 4.3 WSW 19 26 10 14 1015.1 1015.2 0.0
06/04:30pm 12.4 7.0 1.1 46 4.8 W 19 24 10 13 1014.8 1014.9 0.0
06/04:00pm 13.5 6.7 0.5 41 5.5 WSW 26 35 14 19 1014.5 1014.6 0.0
06/03:30pm 14.2 7.1 1.2 41 5.6 W 28 37 15 20 1014.1 1014.2 0.0
06/03:00pm 14.9 7.8 1.4 40 5.9 W 28 41 15 22 1014.0 1014.1 0.0
06/02:30pm 15.3 8.5 0.7 37 6.3 SW 26 39 14 21 1013.7 1013.8 0.0
06/02:00pm 15.4 8.7 1.2 38 6.2 WSW 26 35 14 19 1013.3 1013.4 0.0
06/01:30pm 15.5 8.4 1.3 38 6.2 WSW 28 35 15 19 1013.4 1013.5 0.0
06/01:00pm 15.5 9.0 0.5 36 6.5 WSW 24 32 13 17 1013.6 1013.7 0.0
06/12:30pm 15.3 9.6 0.3 36 6.4 W 20 28 11 15 1013.9 1014.0 0.0
06/12:00pm 14.3 8.2 0.5 39 5.9 WSW 22 33 12 18 1014.4 1014.5 0.0
06/11:30am 13.8 7.5 1.5 43 5.3 W 24 33 13 18 1014.9 1015.0 0.0
06/11:00am 13.3 8.5 2.5 48 4.8 WSW 17 26 9 14 1015.5 1015.6 0.0
06/10:30am 12.0 6.2 2.2 51 4.2 WSW 22 33 12 18 1015.8 1015.9 0.0
06/10:00am 9.3 6.6 3.9 69 2.4 SW 7 15 4 8 1016.1 1016.2 0.0
06/09:30am 6.6 5.4 6.5 99 0.0 NNW 2 7 1 4 1016.4 1016.5 0.0
06/09:00am 3.9 2.5 3.8 99 0.0 CALM 0 0 0 0 1016.5 1016.6 0.2
06/08:38am 1.1 -1.1 1.0 99 0.0 SSE 2 7 1 4 1016.6 1016.7 0.2
06/08:30am 0.4 -1.5 0.3 99 0.0 CALM 0 0 0 0 1016.7 1016.8 0.2
06/08:11am -0.6 -3.1 -0.7 99 0.0 S 2 6 1 3 1016.6 1016.7 0.0
06/08:00am -1.2 -3.4 -1.3 99 0.0 CALM 0 0 0 0 1016.6 1016.7 0.0
06/07:30am -2.3 -4.6 -2.4 99 -0.1 CALM 0 0 0 0 1016.6 1016.7 0.0
06/07:19am -2.2 -4.5 -2.3 99 -0.1 CALM 0 0 0 0 1016.5 1016.6 0.0
06/07:00am -2.1 -4.4 -2.2 99 -0.1 CALM 0 0 0 0 1016.5 1016.6 0.0
06/06:37am -2.3 -4.6 -2.4 99 -0.1 CALM 0 0 0 0 1016.3 1016.4 0.0
06/06:30am -2.4 -4.7 -2.5 99 -0.1 CALM 0 0 0 0 1016.3 1016.4 0.0
06/06:12am -2.2 -4.5 -2.3 99 -0.1 CALM 0 0 0 0 1016.2 1016.3 0.0
06/06:10am -2.1 -4.4 -2.2 99 -0.1 CALM 0 0 0 0 1016.2 1016.3 0.0
06/06:00am -2.4 -4.7 -2.5 99 -0.1 CALM 0 0 0 0 1016.3 1016.4 0.0
06/05:39am -2.3 -4.6 -2.4 99 -0.1 CALM 0 0 0 0 1016.2 1016.3 0.0
06/05:30am -1.8 -4.0 -1.9 99 0.0 CALM 0 0 0 0 1016.2 1016.3 0.0
06/05:27am -1.7 -3.9 -1.8 99 0.0 CALM 0 0 0 0 1016.2 1016.3 0.0
06/05:17am -2.0 -4.3 -2.1 99 -0.1 CALM 0 0 0 0 1016.2 1016.3 0.0
06/05:16am -1.9 -4.2 -2.0 99 -0.1 CALM 0 0 0 0 1016.2 1016.3 0.0
06/05:11am -1.9 -4.2 -2.0 99 -0.1 CALM 0 0 0 0 1016.2 1016.3 0.0
06/05:00am -1.9 -4.2 -2.0 99 -0.1 CALM 0 0 0 0 1016.2 1016.3 0.0
06/04:30am -1.6 -3.8 -1.7 99 0.0 CALM 0 0 0 0 1016.4 1016.5 0.0
06/04:26am -1.6 -3.8 -1.7 99 0.0 CALM 0 0 0 0 1016.4 1016.5 0.0
06/04:00am -0.8 -4.1 -0.9 99 0.0 S 6 7 3 4 1016.5 1016.6 0.0
06/03:30am 0.1 -1.9 0.0 99 0.0 CALM 0 0 0 0 1016.7 1016.8 0.0
06/03:16am -0.2 -2.2 -0.3 99 0.0 CALM 0 0 0 0 1016.8 1016.9 0.0
06/03:03am -0.2 -2.2 -0.3 99 0.0 CALM 0 0 0 0 1016.9 1017.0 0.0
06/03:00am 0.0 -2.0 -0.1 99 0.0 CALM 0 0 0 0 1016.9 1017.0 0.0
06/02:30am 0.0 -2.0 -0.1 99 0.0 CALM 0 0 0 0 1017.3 1017.4 0.0
06/02:19am 0.9 -1.0 0.8 99 0.0 CALM 0 0 0 0 1017.4 1017.5 0.0
06/02:13am 1.3 -0.5 1.2 99 0.0 CALM 0 0 0 0 1017.5 1017.6 0.0
06/02:00am 0.4 -1.5 0.3 99 0.0 CALM 0 0 0 0 1017.6 1017.7 0.0
06/01:30am 0.8 -1.1 0.7 99 0.0 CALM 0 0 0 0 1017.7 1017.8 0.0
06/01:00am 1.1 -0.8 0.8 98 0.1 CALM 0 0 0 0 1017.8 1017.9 0.0
06/12:46am 2.1 0.4 2.0 99 0.0 CALM 0 0 0 0 1017.9 1018.0 0.0
06/12:33am 2.2 0.1 1.9 98 0.1 N 2 6 1 3 1018.0 1018.1 0.0
06/12:30am 1.9 -0.2 1.6 98 0.1 N 2 7 1 4 1018.0 1018.1 0.0
06/12:20am 1.6 -0.2 1.3 98 0.1 CALM 0 0 0 0 1018.0 1018.1 0.0
06/12:09am 1.8 0.0 1.5 98 0.1 CALM 0 0 0 0 1018.1 1018.2 0.0
06/12:06am 1.8 0.0 1.5 98 0.1 CALM 0 0 0 0 1018.1 1018.2 0.0
 
Date/Time
EST
Tmp

°C
App
Tmp
°C
Dew
Point
°C
Rel
Hum
%
Delta-T

°C
Wind Press
QNH
hPa
Press
MSL
hPa
Rain
since
9 am
mm
Dir
 
Spd
km/h
Gust
km/h
Spd
kts
Gust
kts
05/11:56pm 2.0 0.3 1.7 98 0.1 CALM 0 0 0 0 1018.2 1018.3 0.0
05/11:49pm 2.5 0.9 2.2 98 0.1 CALM 0 0 0 0 1018.2 1018.3 0.0
05/11:30pm 2.8 1.2 2.4 97 0.2 CALM 0 0 0 0 1018.3 1018.4 0.0
05/11:21pm 2.6 0.9 2.0 96 0.2 CALM 0 0 0 0 1018.4 1018.5 0.0
05/11:19pm 2.5 0.8 1.9 96 0.2 CALM 0 0 0 0 1018.4 1018.5 0.0
05/11:18pm 2.5 0.8 1.9 96 0.2 CALM 0 0 0 0 1018.4 1018.5 0.0
05/11:00pm 3.1 1.6 2.8 98 0.1 CALM 0 0 0 0 1018.3 1018.4 0.0
05/10:53pm 3.7 2.3 3.4 98 0.1 CALM 0 0 0 0 1018.3 1018.4 0.0
05/10:37pm 3.4 1.9 3.0 97 0.2 CALM 0 0 0 0 1018.3 1018.4 0.0
05/10:30pm 3.4 1.8 2.7 95 0.3 CALM 0 0 0 0 1018.2 1018.3 0.0
05/10:25pm 3.2 1.6 2.5 95 0.3 CALM 0 0 0 0 1018.3 1018.4 0.0
05/10:22pm 3.3 1.7 2.4 94 0.4 CALM 0 0 0 0 1018.3 1018.4 0.0
05/10:00pm 3.5 1.9 2.5 93 0.4 CALM 0 0 0 0 1018.3 1018.4 0.0
05/09:30pm 4.7 3.3 3.8 94 0.4 CALM 0 0 0 0 1018.4 1018.5 0.0
05/09:00pm 4.3 2.3 2.3 87 0.8 S 2 6 1 3 1018.4 1018.5 0.0
05/08:30pm 5.5 3.0 3.5 87 0.8 S 6 7 3 4 1018.4 1018.5 0.0
05/08:00pm 5.8 3.7 3.8 87 0.8 SSW 4 6 2 3 1018.5 1018.6 0.0
05/07:30pm 6.3 3.6 2.9 79 1.4 SSE 6 9 3 5 1018.5 1018.6 0.0
05/07:00pm 8.0 6.6 3.8 75 1.8 CALM 0 0 0 0 1018.6 1018.7 0.0
05/06:30pm 7.2 5.8 3.4 77 1.6 CALM 0 0 0 0 1018.5 1018.6 0.0
05/06:00pm 9.6 8.1 3.1 64 2.8 CALM 0 0 0 0 1018.2 1018.3 0.0
05/05:30pm 11.7 9.1 3.2 56 3.8 N 6 7 3 4 1017.9 1018.0 0.0
05/05:00pm 12.3 9.6 3.5 55 3.9 N 7 9 4 5 1017.8 1017.9 0.0
05/04:30pm 13.4 9.8 3.2 50 4.6 N 11 13 6 7 1018.0 1018.1 0.0
05/04:00pm 15.8 12.1 2.6 41 5.9 NNE 11 13 6 7 1017.8 1017.9 0.0
05/03:30pm 16.7 13.3 1.6 36 6.7 NNE 9 13 5 7 1017.8 1017.9 0.0
05/03:00pm 16.8 12.9 0.9 34 7.0 ENE 11 15 6 8 1017.8 1017.9 0.0
05/02:30pm 17.6 14.6 0.7 32 7.4 NNW 6 9 3 5 1017.8 1017.9 0.0
05/02:00pm 16.9 13.7 0.5 33 7.1 N 7 11 4 6 1018.1 1018.2 0.0
05/01:30pm 16.9 13.9 1.0 34 7.0 NNE 6 7 3 4 1018.1 1018.2 0.0
05/01:00pm 16.8 14.9 2.8 39 6.4 N 2 7 1 4 1018.4 1018.5 0.0
05/12:30pm 16.0 14.0 2.1 39 6.2 N 2 7 1 4 1019.2 1019.3 0.0
05/12:00pm 14.6 12.4 3.1 46 5.2 NNW 4 9 2 5 1019.7 1019.8 0.0
05/11:30am 13.2 11.7 3.0 50 4.5 CALM 0 0 0 0 1020.6 1020.7 0.0
05/11:00am 11.8 10.0 3.3 56 3.7 SSW 2 6 1 3 1021.2 1021.3 0.0
05/10:30am 10.5 8.6 3.1 60 3.2 SW 2 7 1 4 1021.7 1021.8 0.0
05/10:00am 8.7 6.9 3.5 70 2.2 SSE 2 7 1 4 1022.1 1022.2 0.0
05/09:30am 6.8 4.7 3.9 82 1.2 SE 4 6 2 3 1022.2 1022.3 0.0
05/09:00am 4.6 3.1 3.1 90 0.6 CALM 0 0 0 0 1022.3 1022.4 0.0
05/08:30am 2.0 0.3 1.9 99 0.0 CALM 0 0 0 0 1022.4 1022.5 0.0
05/08:00am 0.3 -1.7 0.2 99 0.0 CALM 0 0 0 0 1022.4 1022.5 0.0
05/07:52am -0.2 -2.2 -0.3 99 0.0 CALM 0 0 0 0 1022.4 1022.5 0.0
05/07:42am -0.5 -2.6 -0.6 99 0.0 CALM 0 0 0 0 1022.3 1022.4 0.0
05/07:30am -1.0 -3.1 -1.1 99 0.0 CALM 0 0 0 0 1022.3 1022.4 0.0
05/07:23am -1.0 -3.1 -1.1 99 0.0 CALM 0 0 0 0 1022.2 1022.3 0.0
05/07:18am -1.1 -3.3 -1.2 99 0.0 CALM 0 0 0 0 1022.2 1022.3 0.0
05/07:00am -1.0 -3.1 -1.1 99 0.0 CALM 0 0 0 0 1022.0 1022.1 0.0
05/06:46am -0.8 -2.9 -0.9 99 0.0 CALM 0 0 0 0 1021.8 1021.9 0.0
05/06:44am -0.9 -3.0 -1.0 99 0.0 CALM 0 0 0 0 1021.8 1021.9 0.0
05/06:30am -0.7 -2.8 -0.8 99 0.0 CALM 0 0 0 0 1021.7 1021.8 0.0
05/06:00am -0.7 -2.8 -0.8 99 0.0 CALM 0 0 0 0 1021.6 1021.7 0.0
05/05:30am -0.8 -2.9 -1.1 98 0.1 CALM 0 0 0 0 1021.4 1021.5 0.0
05/05:00am -0.3 -2.4 -0.6 98 0.1 CALM 0 0 0 0 1021.4 1021.5 0.0
05/04:41am -0.2 -2.3 -0.5 98 0.1 CALM 0 0 0 0 1021.3 1021.4 0.0
05/04:37am -0.3 -2.4 -0.6 98 0.1 CALM 0 0 0 0 1021.3 1021.4 0.0
05/04:33am -0.3 -2.4 -0.6 98 0.1 CALM 0 0 0 0 1021.3 1021.4 0.0
05/04:30am -0.3 -2.4 -0.6 98 0.1 CALM 0 0 0 0 1021.3 1021.4 0.0
05/04:01am -0.4 -2.5 -0.7 98 0.1 CALM 0 0 0 0 1021.3 1021.4 0.0
05/04:00am -0.6 -2.7 -0.9 98 0.1 CALM 0 0 0 0 1021.3 1021.4 0.0
05/03:47am -0.1 -2.1 -0.4 98 0.1 CALM 0 0 0 0 1021.4 1021.5 0.0
05/03:34am -0.2 -2.3 -0.5 98 0.1 CALM 0 0 0 0 1021.4 1021.5 0.0
05/03:30am -0.3 -2.4 -0.6 98 0.1 CALM 0 0 0 0 1021.5 1021.6 0.0
05/03:18am 0.1 -1.9 -0.2 98 0.1 CALM 0 2 0 1 1021.6 1021.7 0.0
05/03:00am 0.5 -1.8 0.2 98 0.1 N 2 6 1 3 1021.7 1021.8 0.0
05/02:45am -0.4 -2.5 -1.0 96 0.2 CALM 0 6 0 3 1021.8 1021.9 0.0
05/02:30am 0.7 -1.6 0.3 97 0.1 S 2 6 1 3 1021.9 1022.0 0.0
05/02:00am 1.0 -0.9 0.7 98 0.1 CALM 0 0 0 0 1021.8 1021.9 0.0
05/01:51am 1.3 -0.5 1.0 98 0.1 CALM 0 0 0 0 1021.9 1022.0 0.0
05/01:30am 0.9 -1.0 0.6 98 0.1 CALM 0 0 0 0 1022.0 1022.1 0.0
05/01:27am 1.0 -0.9 0.7 98 0.1 CALM 0 0 0 0 1022.0 1022.1 0.0
05/01:04am 1.1 -0.8 0.8 98 0.1 CALM 0 0 0 0 1021.9 1022.0 0.0
05/01:00am 1.1 -0.8 0.7 97 0.1 CALM 0 0 0 0 1021.9 1022.0 0.0
05/12:37am 0.6 -1.8 0.0 96 0.2 S 2 7 1 4 1021.8 1021.9 0.0
05/12:30am 1.3 -0.5 0.9 97 0.1 CALM 0 6 0 3 1021.8 1021.9 0.0
05/12:00am 0.9 -1.1 0.2 95 0.3 CALM 0 0 0 0 1022.1 1022.2 0.0
 
Date/Time
EST
Tmp

°C
App
Tmp
°C
Dew
Point
°C
Rel
Hum
%
Delta-T

°C
Wind Press
QNH
hPa
Press
MSL
hPa
Rain
since
9 am
mm
Dir
 
Spd
km/h
Gust
km/h
Spd
kts
Gust
kts
04/11:30pm 1.0 -2.1 0.1 94 0.3 SSE 6 7 3 4 1022.1 1022.2 0.0
04/11:24pm 1.5 -0.7 0.8 95 0.3 NE 2 6 1 3 1022.2 1022.3 0.0
04/11:12pm 1.5 -0.4 0.8 95 0.3 CALM 0 0 0 0 1022.2 1022.3 0.0
04/11:11pm 1.4 -0.5 0.7 95 0.3 CALM 0 0 0 0 1022.2 1022.3 0.0
04/11:09pm 1.4 -0.5 0.7 95 0.3 CALM 0 0 0 0 1022.2 1022.3 0.0
04/11:08pm 1.6 -0.2 0.9 95 0.3 CALM 0 0 0 0 1022.2 1022.3 0.0
04/11:07pm 1.6 -0.2 0.9 95 0.3 CALM 0 0 0 0 1022.2 1022.3 0.0
04/11:05pm 1.7 -0.2 0.8 94 0.3 CALM 0 0 0 0 1022.2 1022.3 0.0
04/11:02pm 1.7 -0.2 0.7 93 0.4 CALM 0 0 0 0 1022.2 1022.3 0.0
04/11:00pm 1.6 -0.3 0.6 93 0.4 CALM 0 0 0 0 1022.2 1022.3 0.0
04/10:30pm 2.0 0.1 0.5 90 0.6 CALM 0 0 0 0 1022.2 1022.3 0.0
04/10:00pm 2.8 1.0 1.5 91 0.5 CALM 0 0 0 0 1022.2 1022.3 0.0
04/09:30pm 3.1 1.2 0.8 85 0.9 CALM 0 0 0 0 1022.3 1022.4 0.0
04/09:00pm 4.0 2.3 1.7 85 0.9 CALM 0 0 0 0 1022.5 1022.6 0.0
04/08:30pm 4.9 2.0 2.4 84 1.0 N 7 7 4 4 1022.5 1022.6 0.0
04/08:00pm 4.7 3.0 2.1 83 1.0 CALM 0 0 0 0 1022.5 1022.6 0.0
04/07:30pm 6.3 4.4 0.6 67 2.2 CALM 0 0 0 0 1022.2 1022.3 0.0
04/07:00pm 6.2 4.0 1.1 70 2.0 WNW 2 6 1 3 1021.8 1021.9 0.0
04/06:30pm 6.8 5.0 1.1 67 2.3 CALM 0 4 0 2 1021.7 1021.8 0.0
04/06:00pm 6.8 3.8 1.9 71 2.0 N 7 9 4 5 1021.3 1021.4 0.0
04/05:30pm 9.8 8.0 0.9 54 3.7 CALM 0 0 0 0 1020.8 1020.9 0.0
04/05:00pm 12.5 10.6 0.6 44 5.0 CALM 0 2 0 1 1020.7 1020.8 0.0
04/04:30pm 14.4 11.0 -0.5 36 6.2 SW 7 9 4 5 1020.5 1020.6 0.0
04/04:00pm 15.4 11.6 -0.4 34 6.6 WSW 9 11 5 6 1020.4 1020.5 0.0
04/03:30pm 15.8 11.2 -1.3 31 7.1 WSW 13 17 7 9 1020.1 1020.2 0.0
04/03:00pm 16.0 12.4 -2.0 29 7.4 SW 7 15 4 8 1020.0 1020.1 0.0
04/02:30pm 16.0 12.0 -2.0 29 7.4 SW 9 17 5 9 1019.8 1019.9 0.0
04/02:00pm 15.7 12.2 -1.4 31 7.1 E 7 17 4 9 1019.7 1019.8 0.0
04/01:30pm 14.9 12.3 0.7 38 6.1 W 4 9 2 5 1019.8 1019.9 0.0
04/01:00pm 14.1 10.4 0.0 38 5.9 N 9 15 5 8 1020.1 1020.2 0.0
04/12:30pm 13.6 11.4 1.3 43 5.3 WNW 2 9 1 5 1020.7 1020.8 0.0
04/12:00pm 12.7 10.0 0.1 42 5.2 N 4 7 2 4 1021.1 1021.2 0.0
04/11:30am 11.1 8.5 1.1 50 4.2 E 4 9 2 5 1021.6 1021.7 0.0
04/11:00am 9.7 7.8 0.6 53 3.7 CALM 0 6 0 3 1022.1 1022.2 0.0
04/10:30am 8.5 6.8 1.6 62 2.8 CALM 0 0 0 0 1022.3 1022.4 0.0
04/10:00am 7.8 5.9 2.7 70 2.1 NNE 2 7 1 4 1022.7 1022.8 0.0
04/09:30am 4.9 3.5 3.7 92 0.5 CALM 0 0 0 0 1023.0 1023.1 0.0
04/09:00am 2.9 1.4 2.8 99 0.0 CALM 0 0 0 0 1022.9 1023.0 0.0
04/08:30am 0.8 -1.1 0.7 99 0.0 CALM 0 0 0 0 1022.7 1022.8 0.0
04/08:00am -0.7 -2.8 -0.8 99 0.0 CALM 0 0 0 0 1023.0 1023.1 0.0
04/07:40am -0.7 -2.8 -0.8 99 0.0 CALM 0 0 0 0 1023.0 1023.1 0.0
04/07:30am -1.1 -3.3 -1.2 99 0.0 CALM 0 0 0 0 1023.0 1023.1 0.0
04/07:18am -1.6 -3.8 -1.7 99 0.0 CALM 0 0 0 0 1022.9 1023.0 0.0
04/07:00am -1.7 -3.9 -1.8 99 0.0 CALM 0 0 0 0 1022.8 1022.9 0.0
04/06:57am -1.7 -3.9 -1.8 99 0.0 CALM 0 0 0 0 1022.9 1023.0 0.0
04/06:56am -1.7 -3.9 -1.8 99 0.0 CALM 0 0 0 0 1022.9 1023.0 0.0
04/06:30am -1.5 -3.7 -1.6 99 0.0 CALM 0 0 0 0 1022.6 1022.7 0.0
04/06:00am -2.0 -4.3 -2.1 99 -0.1 CALM 0 0 0 0 1022.4 1022.5 0.0
04/05:59am -1.9 -4.2 -2.0 99 -0.1 CALM 0 0 0 0 1022.4 1022.5 0.0
04/05:53am -2.1 -4.4 -2.2 99 -0.1 CALM 0 0 0 0 1022.6 1022.7 0.0
04/05:30am -1.7 -3.9 -1.8 99 0.0 CALM 0 0 0 0 1022.3 1022.4 0.0
04/05:00am -0.8 -2.9 -0.9 99 0.0 CALM 0 0 0 0 1022.5 1022.6 0.0
04/04:30am -0.8 -2.9 -0.9 99 0.0 CALM 0 0 0 0 1022.6 1022.7 0.0
04/04:00am -0.4 -2.5 -0.5 99 0.0 CALM 0 0 0 0 1022.9 1023.0 0.0
04/03:31am 0.1 -1.9 0.0 99 0.0 CALM 0 0 0 0 1023.2 1023.3 0.0
04/03:30am 0.1 -1.9 0.0 99 0.0 CALM 0 0 0 0 1023.2 1023.3 0.0
04/03:23am 0.3 -1.7 0.2 99 0.0 CALM 0 0 0 0 1023.2 1023.3 0.0
04/03:13am -0.1 -2.1 -0.2 99 0.0 CALM 0 0 0 0 1023.4 1023.5 0.0
04/03:00am -0.2 -2.2 -0.3 99 0.0 CALM 0 0 0 0 1023.7 1023.8 0.0
04/02:54am -0.2 -2.2 -0.3 99 0.0 CALM 0 0 0 0 1023.6 1023.7 0.0
04/02:45am -0.1 -2.1 -0.2 99 0.0 CALM 0 0 0 0 1023.5 1023.6 0.0
04/02:37am 0.1 -1.9 0.0 99 0.0 CALM 0 0 0 0 1023.6 1023.7 0.0
04/02:30am 0.3 -1.7 0.2 99 0.0 CALM 0 0 0 0 1023.6 1023.7 0.0
04/02:29am 0.3 -1.7 0.2 99 0.0 CALM 0 0 0 0 1023.6 1023.7 0.0
04/02:00am 0.5 -1.4 0.4 99 0.0 CALM 0 0 0 0 1024.2 1024.3 0.0
04/01:48am 0.4 -1.5 0.3 99 0.0 CALM 0 0 0 0 1024.1 1024.2 0.0
04/01:43am 0.5 -1.4 0.4 99 0.0 CALM 0 0 0 0 1024.2 1024.3 0.0
04/01:37am 0.5 -1.5 0.2 98 0.1 CALM 0 0 0 0 1024.2 1024.3 0.0
04/01:30am 0.4 -1.6 0.1 98 0.1 CALM 0 0 0 0 1024.1 1024.2 0.0
04/01:00am 1.1 -0.8 0.8 98 0.1 CALM 0 0 0 0 1024.2 1024.3 0.0
04/12:49am 1.0 -0.9 0.7 98 0.1 CALM 0 0 0 0 1024.4 1024.5 0.0
04/12:36am 0.7 -1.2 0.3 97 0.1 CALM 0 0 0 0 1024.6 1024.7 0.0
04/12:30am 0.6 -1.4 0.2 97 0.1 CALM 0 0 0 0 1024.7 1024.8 0.0
04/12:24am 0.7 -1.2 0.3 97 0.1 CALM 0 0 0 0 1024.8 1024.9 0.0
04/12:23am 0.7 -1.2 0.3 97 0.1 CALM 0 0 0 0 1024.8 1024.9 0.0
04/12:05am 0.9 -1.0 0.5 97 0.1 CALM 0 0 0 0 1025.0 1025.1 0.0
04/12:04am 0.8 -1.1 0.4 97 0.1 CALM 0 0 0 0 1025.0 1025.1 0.0
04/12:00am 0.9 -1.0 0.5 97 0.1 CALM 0 0 0 0 1025.1 1025.2 0.0
 
Date/Time
EST
Tmp

°C
App
Tmp
°C
Dew
Point
°C
Rel
Hum
%
Delta-T

°C
Wind Press
QNH
hPa
Press
MSL
hPa
Rain
since
9 am
mm
Dir
 
Spd
km/h
Gust
km/h
Spd
kts
Gust
kts
03/11:58pm 1.0 -0.9 0.6 97 0.1 CALM 0 0 0 0 1025.1 1025.2 0.0
03/11:49pm 1.2 -0.7 0.8 97 0.1 CALM 0 0 0 0 1025.2 1025.3 0.0

Latest Capital City Observations: Canberra | Sydney | Melbourne | Brisbane | Adelaide | Perth | Hobart | Darwin

Other Formats:

Comma delimited format used in spreadsheet applications
http://www.bom.gov.au/fwo/IDN60901/IDN60901.94755.axf

JavaScript Object Notation format (JSON) in row-major order
http://www.bom.gov.au/fwo/IDN60901/IDN60901.94755.json